createdAt,value
2018-11-21T00:00:02.392Z,0.00
2018-11-21T00:01:02.384Z,0.00
2018-11-21T00:02:02.393Z,0.00
2018-11-21T00:03:02.368Z,0.00
2018-11-21T00:04:02.371Z,0.00
2018-11-21T00:05:02.421Z,0.00
2018-11-21T00:06:02.401Z,0.00
2018-11-21T00:07:02.397Z,0.00
2018-11-21T00:08:02.384Z,0.00
2018-11-21T00:09:02.394Z,0.00
2018-11-21T00:10:02.391Z,0.00
2018-11-21T00:11:02.718Z,0.00
2018-11-21T00:12:02.803Z,0.00
2018-11-21T00:13:02.490Z,0.00
2018-11-21T00:14:02.449Z,0.00
2018-11-21T00:15:02.444Z,0.00
2018-11-21T00:16:02.412Z,0.00
2018-11-21T00:17:02.411Z,0.00
2018-11-21T00:18:02.414Z,0.00
2018-11-21T00:19:02.442Z,0.00
2018-11-21T00:20:02.422Z,0.00
2018-11-21T00:21:02.423Z,0.00
2018-11-21T00:22:02.437Z,0.00
2018-11-21T00:23:02.569Z,0.00
2018-11-21T00:24:02.455Z,0.00
2018-11-21T00:25:02.458Z,0.00
2018-11-21T00:26:02.478Z,0.00
2018-11-21T00:27:02.445Z,0.00
2018-11-21T00:28:02.569Z,0.00
2018-11-21T00:29:02.467Z,0.00
2018-11-21T00:30:02.479Z,0.00
2018-11-21T00:31:02.480Z,0.00
2018-11-21T00:32:02.466Z,0.00
2018-11-21T00:33:02.480Z,0.00
2018-11-21T00:34:02.483Z,0.00
2018-11-21T00:35:02.487Z,0.00
2018-11-21T00:36:02.495Z,0.00
2018-11-21T00:37:02.514Z,0.00
2018-11-21T00:38:02.472Z,0.00
2018-11-21T00:39:02.474Z,0.00
2018-11-21T00:40:02.518Z,0.00
2018-11-21T00:41:02.507Z,0.00
2018-11-21T00:42:02.508Z,0.00
2018-11-21T00:43:02.560Z,0.00
2018-11-21T00:44:02.511Z,0.00
2018-11-21T00:45:02.588Z,0.00
2018-11-21T00:46:02.817Z,0.00
2018-11-21T00:47:02.504Z,0.00
2018-11-21T00:48:02.506Z,0.00
2018-11-21T00:49:02.541Z,0.00
2018-11-21T00:50:02.546Z,0.00
2018-11-21T00:51:02.540Z,0.00
2018-11-21T00:52:03.224Z,0.00
2018-11-21T00:53:02.545Z,0.00
2018-11-21T00:54:02.529Z,0.00
2018-11-21T00:55:02.743Z,0.00
2018-11-21T00:56:02.544Z,0.00
2018-11-21T00:57:02.572Z,0.00
2018-11-21T00:58:02.554Z,0.00
2018-11-21T00:59:02.539Z,0.00
2018-11-21T01:00:02.534Z,0.00
2018-11-21T01:01:02.576Z,0.00
2018-11-21T01:02:02.768Z,0.00
2018-11-21T01:03:02.549Z,0.00
2018-11-21T01:04:02.572Z,0.00
2018-11-21T01:05:03.174Z,0.00
2018-11-21T01:06:02.567Z,0.00
2018-11-21T01:07:02.601Z,0.00
2018-11-21T01:08:02.615Z,0.00
2018-11-21T01:09:02.602Z,0.00
2018-11-21T01:10:02.589Z,0.00
2018-11-21T01:11:02.578Z,0.00
2018-11-21T01:12:02.641Z,0.00
2018-11-21T01:13:02.613Z,0.00
2018-11-21T01:14:02.589Z,0.00
2018-11-21T01:15:02.586Z,0.00
2018-11-21T01:16:04.212Z,0.00
2018-11-21T01:17:02.602Z,0.00
2018-11-21T01:18:02.587Z,0.00
2018-11-21T01:19:02.620Z,0.00
2018-11-21T01:20:02.602Z,0.00
2018-11-21T01:21:02.595Z,0.00
2018-11-21T01:22:02.605Z,0.00
2018-11-21T01:23:02.642Z,0.00
2018-11-21T01:24:02.599Z,0.00
2018-11-21T01:25:02.612Z,0.00
2018-11-21T01:26:02.632Z,0.00
2018-11-21T01:27:02.609Z,0.00
2018-11-21T01:28:02.641Z,0.00
2018-11-21T01:29:02.621Z,0.00
2018-11-21T01:30:02.622Z,0.00
2018-11-21T01:31:02.635Z,0.00
2018-11-21T01:32:02.661Z,0.00
2018-11-21T01:33:09.389Z,0.00
2018-11-21T01:34:02.632Z,0.00
2018-11-21T01:35:02.659Z,0.00
2018-11-21T01:36:02.673Z,0.00
2018-11-21T01:37:02.665Z,0.00
2018-11-21T01:38:02.645Z,0.00
2018-11-21T01:39:02.642Z,0.00
2018-11-21T01:40:02.694Z,0.00
2018-11-21T01:41:02.685Z,0.00
2018-11-21T01:42:02.699Z,0.00
2018-11-21T01:43:02.654Z,0.00
2018-11-21T01:44:02.675Z,0.00
2018-11-21T01:45:02.670Z,0.00
2018-11-21T01:46:02.698Z,0.00
2018-11-21T01:47:02.695Z,0.00
2018-11-21T01:48:02.707Z,0.00
2018-11-21T01:49:02.669Z,0.00
2018-11-21T01:50:02.706Z,0.00
2018-11-21T01:51:02.679Z,0.00
2018-11-21T01:52:02.682Z,0.00
2018-11-21T01:53:02.688Z,0.00
2018-11-21T01:54:02.724Z,0.00
2018-11-21T01:55:02.717Z,0.00
2018-11-21T01:56:02.696Z,0.00
2018-11-21T01:57:02.732Z,0.00
2018-11-21T01:58:02.714Z,0.00
2018-11-21T01:59:02.725Z,0.00
2018-11-21T02:00:03.240Z,0.00
2018-11-21T02:01:02.725Z,0.00
2018-11-21T02:02:02.706Z,0.00
2018-11-21T02:03:02.725Z,0.00
2018-11-21T02:04:02.773Z,0.00
2018-11-21T02:05:02.754Z,0.00
2018-11-21T02:06:02.724Z,0.00
2018-11-21T02:07:02.918Z,0.00
2018-11-21T02:08:02.745Z,0.00
2018-11-21T02:09:02.745Z,0.00
2018-11-21T02:10:02.782Z,0.00
2018-11-21T02:11:02.748Z,0.00
2018-11-21T02:12:02.754Z,0.00
2018-11-21T02:13:02.748Z,0.00
2018-11-21T02:14:02.791Z,0.00
2018-11-21T02:15:02.769Z,0.00
2018-11-21T02:16:02.792Z,0.00
2018-11-21T02:17:02.805Z,0.00
2018-11-21T02:18:02.771Z,0.00
2018-11-21T02:19:02.774Z,0.00
2018-11-21T02:20:02.759Z,0.00
2018-11-21T02:21:02.760Z,0.00
2018-11-21T02:22:02.817Z,0.00
2018-11-21T02:23:02.777Z,0.00
2018-11-21T02:24:02.790Z,0.00
2018-11-21T02:25:02.779Z,0.00
2018-11-21T02:26:02.776Z,0.00
2018-11-21T02:27:02.798Z,0.00
2018-11-21T02:28:02.789Z,0.00
2018-11-21T02:29:02.805Z,0.00
2018-11-21T02:30:02.804Z,0.00
2018-11-21T02:31:02.805Z,0.00
2018-11-21T02:32:02.859Z,0.00
2018-11-21T02:33:02.794Z,0.00
2018-11-21T02:34:02.800Z,0.00
2018-11-21T02:35:02.806Z,0.00
2018-11-21T02:36:02.821Z,0.00
2018-11-21T02:37:02.813Z,0.00
2018-11-21T02:38:02.831Z,0.00
2018-11-21T02:39:02.806Z,0.00
2018-11-21T02:40:02.840Z,0.00
2018-11-21T02:41:02.855Z,0.00
2018-11-21T02:42:02.847Z,0.00
2018-11-21T02:43:02.858Z,0.00
2018-11-21T02:44:02.848Z,0.00
2018-11-21T02:45:02.866Z,0.00
2018-11-21T02:46:02.841Z,0.00
2018-11-21T02:47:02.852Z,0.00
2018-11-21T02:48:02.867Z,0.00
2018-11-21T02:49:02.956Z,0.00
2018-11-21T02:50:02.842Z,0.00
2018-11-21T02:51:03.019Z,0.00
2018-11-21T02:52:02.865Z,0.00
2018-11-21T02:53:02.919Z,0.00
2018-11-21T02:54:02.993Z,0.00
2018-11-21T02:55:03.244Z,0.00
2018-11-21T02:56:03.225Z,0.00
2018-11-21T02:57:02.861Z,0.00
2018-11-21T02:58:02.872Z,0.00
2018-11-21T02:59:03.265Z,0.00
2018-11-21T03:00:03.665Z,0.00
2018-11-21T03:01:03.102Z,0.00
2018-11-21T03:02:02.874Z,0.00
2018-11-21T03:03:03.162Z,0.00
2018-11-21T03:04:02.888Z,0.00
2018-11-21T03:05:02.920Z,0.00
2018-11-21T03:06:02.889Z,0.00
2018-11-21T03:07:02.897Z,0.00
2018-11-21T03:08:03.247Z,0.00
2018-11-21T03:09:02.903Z,0.00
2018-11-21T03:10:03.670Z,0.00
2018-11-21T03:11:03.105Z,0.00
2018-11-21T03:12:02.910Z,0.00
2018-11-21T03:13:02.926Z,0.00
2018-11-21T03:14:02.989Z,0.00
2018-11-21T03:15:02.920Z,0.00
2018-11-21T03:16:02.935Z,0.00
2018-11-21T03:17:03.046Z,0.00
2018-11-21T03:18:02.914Z,0.00
2018-11-21T03:19:03.259Z,0.00
2018-11-21T03:20:02.927Z,0.00
2018-11-21T03:21:03.203Z,0.00
2018-11-21T03:22:02.925Z,0.00
2018-11-21T03:23:02.947Z,0.00
2018-11-21T03:24:02.940Z,0.00
2018-11-21T03:25:02.953Z,0.00
2018-11-21T03:26:03.008Z,0.00
2018-11-21T03:27:02.969Z,0.00
2018-11-21T03:28:03.082Z,0.00
2018-11-21T03:29:02.961Z,0.00
2018-11-21T03:30:02.966Z,0.00
2018-11-21T03:31:03.338Z,0.00
2018-11-21T03:32:03.030Z,0.00
2018-11-21T03:33:03.213Z,0.00
2018-11-21T03:34:03.353Z,0.00
2018-11-21T03:35:02.964Z,0.00
2018-11-21T03:36:02.976Z,0.00
2018-11-21T03:37:02.965Z,0.00
2018-11-21T03:38:02.995Z,0.00
2018-11-21T03:39:02.972Z,0.00
2018-11-21T03:40:02.983Z,0.00
2018-11-21T03:41:02.983Z,0.00
2018-11-21T03:42:02.993Z,0.00
2018-11-21T03:43:03.014Z,0.00
2018-11-21T03:44:03.013Z,0.00
2018-11-21T03:45:03.168Z,0.00
2018-11-21T03:46:02.993Z,0.00
2018-11-21T03:47:02.994Z,0.00
2018-11-21T03:48:03.013Z,0.00
2018-11-21T03:49:03.036Z,0.00
2018-11-21T03:50:03.007Z,0.00
2018-11-21T03:51:03.019Z,0.00
2018-11-21T03:52:03.017Z,0.00
2018-11-21T03:53:03.041Z,0.00
2018-11-21T03:54:03.055Z,0.00
2018-11-21T03:55:03.022Z,0.00
2018-11-21T03:56:03.083Z,0.00
2018-11-21T03:57:03.034Z,0.00
2018-11-21T03:58:03.025Z,0.00
2018-11-21T03:59:03.029Z,0.00
2018-11-21T04:00:03.035Z,0.00
2018-11-21T04:01:03.048Z,0.00
2018-11-21T04:02:03.075Z,0.00
2018-11-21T04:03:03.048Z,0.00
2018-11-21T04:04:03.155Z,0.00
2018-11-21T04:05:03.047Z,0.00
2018-11-21T04:06:03.062Z,0.00
2018-11-21T04:07:03.114Z,0.00
2018-11-21T04:08:03.092Z,0.00
2018-11-21T04:09:03.076Z,0.00
2018-11-21T04:10:03.094Z,0.00
2018-11-21T04:11:03.143Z,0.00
2018-11-21T04:12:03.094Z,0.00
2018-11-21T04:13:03.130Z,0.00
2018-11-21T04:14:03.144Z,0.00
2018-11-21T04:15:03.083Z,0.00
2018-11-21T04:16:03.081Z,0.00
2018-11-21T04:17:03.102Z,0.00
2018-11-21T04:18:03.144Z,0.00
2018-11-21T04:19:03.120Z,0.00
2018-11-21T04:20:03.089Z,0.00
2018-11-21T04:21:03.101Z,0.00
2018-11-21T04:22:03.091Z,0.00
2018-11-21T04:23:03.093Z,0.00
2018-11-21T04:24:03.127Z,0.00
2018-11-21T04:25:03.095Z,0.00
2018-11-21T04:26:03.098Z,0.00
2018-11-21T04:27:03.109Z,0.00
2018-11-21T04:28:03.167Z,0.00
2018-11-21T04:29:03.130Z,0.00
2018-11-21T04:30:03.259Z,0.00
2018-11-21T04:31:03.117Z,0.00
2018-11-21T04:32:03.127Z,0.00
2018-11-21T04:33:03.123Z,0.00
2018-11-21T04:34:03.150Z,0.00
2018-11-21T04:35:03.163Z,0.00
2018-11-21T04:36:03.131Z,0.00
2018-11-21T04:37:03.151Z,0.00
2018-11-21T04:38:03.273Z,0.00
2018-11-21T04:39:03.236Z,0.00
2018-11-21T04:40:03.192Z,0.00
2018-11-21T04:41:03.186Z,0.00
2018-11-21T04:42:03.157Z,0.00
2018-11-21T04:43:03.163Z,0.00
2018-11-21T04:44:03.167Z,0.00
2018-11-21T04:45:03.193Z,0.00
2018-11-21T04:46:03.164Z,0.00
2018-11-21T04:47:03.197Z,0.00
2018-11-21T04:48:03.193Z,0.00
2018-11-21T04:49:03.204Z,0.00
2018-11-21T04:50:03.169Z,0.00
2018-11-21T04:51:03.164Z,0.00
2018-11-21T04:52:03.183Z,0.00
2018-11-21T04:53:03.363Z,0.00
2018-11-21T04:54:03.180Z,0.00
2018-11-21T04:55:03.201Z,0.00
2018-11-21T04:56:03.219Z,0.00
2018-11-21T04:57:03.205Z,0.00
2018-11-21T04:58:03.200Z,0.00
2018-11-21T04:59:03.277Z,0.00
2018-11-21T05:00:03.201Z,0.00
2018-11-21T05:01:03.212Z,0.00
2018-11-21T05:02:03.227Z,0.00
2018-11-21T05:03:03.230Z,0.00
2018-11-21T05:04:03.235Z,0.00
2018-11-21T05:05:03.251Z,0.00
2018-11-21T05:06:03.213Z,0.00
2018-11-21T05:07:03.227Z,0.00
2018-11-21T05:08:03.226Z,0.00
2018-11-21T05:09:03.222Z,0.00
2018-11-21T05:10:03.244Z,0.00
2018-11-21T05:11:03.252Z,0.00
2018-11-21T05:12:03.263Z,0.00
2018-11-21T05:13:03.250Z,0.00
2018-11-21T05:14:03.236Z,0.00
2018-11-21T05:15:03.234Z,0.00
2018-11-21T05:16:03.280Z,0.00
2018-11-21T05:17:03.272Z,0.00
2018-11-21T05:18:04.198Z,0.00
2018-11-21T05:19:03.257Z,0.00
2018-11-21T05:20:03.253Z,0.00
2018-11-21T05:21:03.259Z,0.00
2018-11-21T05:22:03.283Z,0.00
2018-11-21T05:23:03.289Z,0.00
2018-11-21T05:24:03.266Z,0.00
2018-11-21T05:25:03.259Z,0.00
2018-11-21T05:26:03.272Z,0.00
2018-11-21T05:27:03.284Z,0.00
2018-11-21T05:28:03.271Z,0.00
2018-11-21T05:29:03.320Z,0.00
2018-11-21T05:30:03.312Z,0.00
2018-11-21T05:31:03.290Z,0.00
2018-11-21T05:32:03.317Z,0.00
2018-11-21T05:33:03.282Z,0.00
2018-11-21T05:34:03.293Z,0.00
2018-11-21T05:35:03.324Z,0.00
2018-11-21T05:36:03.328Z,0.00
2018-11-21T05:37:03.318Z,0.00
2018-11-21T05:38:03.317Z,0.00
2018-11-21T05:39:03.306Z,0.00
2018-11-21T05:40:03.336Z,0.00
2018-11-21T05:41:03.305Z,0.00
2018-11-21T05:42:03.337Z,0.00
2018-11-21T05:43:03.324Z,0.00
2018-11-21T05:44:03.331Z,0.00
2018-11-21T05:45:03.325Z,0.00
2018-11-21T05:46:03.393Z,0.00
2018-11-21T05:47:03.334Z,0.00
2018-11-21T05:48:03.320Z,0.00
2018-11-21T05:49:03.344Z,0.00
2018-11-21T05:50:03.332Z,0.00
2018-11-21T05:51:03.364Z,0.00
2018-11-21T05:52:03.332Z,0.00
2018-11-21T05:53:03.354Z,0.00
2018-11-21T05:54:03.345Z,0.00
2018-11-21T05:55:03.365Z,0.00
2018-11-21T05:56:03.430Z,0.00
2018-11-21T05:57:03.360Z,0.00
2018-11-21T05:58:03.401Z,0.00
2018-11-21T05:59:03.442Z,0.00
2018-11-21T06:00:03.378Z,0.00
2018-11-21T06:01:03.357Z,0.00
2018-11-21T06:02:03.402Z,0.00
2018-11-21T06:03:03.366Z,0.00
2018-11-21T06:04:03.388Z,0.00
2018-11-21T06:05:03.383Z,0.00
2018-11-21T06:06:09.751Z,0.00
2018-11-21T06:07:03.448Z,4.00
2018-11-21T06:08:03.378Z,4.00
2018-11-21T06:09:03.384Z,0.00
2018-11-21T06:10:03.417Z,4.00
2018-11-21T06:11:03.395Z,4.00
2018-11-21T06:12:04.453Z,4.00
2018-11-21T06:13:03.442Z,8.00
2018-11-21T06:14:03.396Z,4.00
2018-11-21T06:15:03.404Z,4.00
2018-11-21T06:16:03.429Z,8.00
2018-11-21T06:17:03.442Z,12.00
2018-11-21T06:18:03.479Z,12.00
2018-11-21T06:19:03.405Z,12.00
2018-11-21T06:20:03.434Z,12.00
2018-11-21T06:21:03.408Z,12.00
2018-11-21T06:22:03.529Z,16.00
2018-11-21T06:23:03.787Z,16.00
2018-11-21T06:24:03.856Z,24.00
2018-11-21T06:25:03.428Z,24.00
2018-11-21T06:26:03.570Z,24.00
2018-11-21T06:27:03.499Z,28.00
2018-11-21T06:28:03.442Z,32.00
2018-11-21T06:29:03.426Z,36.00
2018-11-21T06:30:03.473Z,40.00
2018-11-21T06:31:03.439Z,44.00
2018-11-21T06:32:03.438Z,48.00
2018-11-21T06:33:03.467Z,52.00
2018-11-21T06:34:03.461Z,60.00
2018-11-21T06:35:03.469Z,64.00
2018-11-21T06:36:03.463Z,76.00
2018-11-21T06:37:03.460Z,84.00
2018-11-21T06:38:03.500Z,84.00
2018-11-21T06:39:03.505Z,100.00
2018-11-21T06:40:03.474Z,116.00
2018-11-21T06:41:03.525Z,120.00
2018-11-21T06:42:03.524Z,120.00
2018-11-21T06:43:03.467Z,128.00
2018-11-21T06:44:03.532Z,140.00
2018-11-21T06:45:03.571Z,148.00
2018-11-21T06:46:03.486Z,152.00
2018-11-21T06:47:03.512Z,148.00
2018-11-21T06:48:03.535Z,152.00
2018-11-21T06:49:03.489Z,172.00
2018-11-21T06:50:03.488Z,188.00
2018-11-21T06:51:03.483Z,208.00
2018-11-21T06:52:03.542Z,224.00
2018-11-21T06:53:03.494Z,244.00
2018-11-21T06:54:03.501Z,256.00
2018-11-21T06:55:03.504Z,268.00
2018-11-21T06:56:03.525Z,256.00
2018-11-21T06:57:03.557Z,276.00
2018-11-21T06:58:03.533Z,296.00
2018-11-21T06:59:03.511Z,332.00
2018-11-21T07:00:03.524Z,344.00
2018-11-21T07:01:03.534Z,348.00
2018-11-21T07:02:03.561Z,372.00
2018-11-21T07:03:03.546Z,392.00
2018-11-21T07:04:03.586Z,412.00
2018-11-21T07:05:03.551Z,444.00
2018-11-21T07:06:03.531Z,484.00
2018-11-21T07:07:03.558Z,520.00
2018-11-21T07:08:03.539Z,524.00
2018-11-21T07:09:03.544Z,552.00
2018-11-21T07:10:03.636Z,560.00
2018-11-21T07:11:03.598Z,576.00
2018-11-21T07:12:03.572Z,628.00
2018-11-21T07:13:03.557Z,640.00
2018-11-21T07:14:07.294Z,616.00
2018-11-21T07:15:03.590Z,592.00
2018-11-21T07:16:03.564Z,600.00
2018-11-21T07:17:03.562Z,584.00
2018-11-21T07:18:03.610Z,572.00
2018-11-21T07:19:03.636Z,556.00
2018-11-21T07:20:03.576Z,588.00
2018-11-21T07:21:03.597Z,604.00
2018-11-21T07:22:03.585Z,608.00
2018-11-21T07:23:03.737Z,592.00
2018-11-21T07:24:03.609Z,560.00
2018-11-21T07:25:03.616Z,572.00
2018-11-21T07:26:03.588Z,608.00
2018-11-21T07:27:03.592Z,656.00
2018-11-21T07:28:03.683Z,676.00
2018-11-21T07:29:03.608Z,792.00
2018-11-21T07:30:03.607Z,880.00
2018-11-21T07:31:03.606Z,892.00
2018-11-21T07:32:03.647Z,900.00
2018-11-21T07:33:03.663Z,972.00
2018-11-21T07:34:03.616Z,920.00
2018-11-21T07:35:03.619Z,940.00
2018-11-21T07:36:03.619Z,860.00
2018-11-21T07:37:03.616Z,992.00
2018-11-21T07:38:03.626Z,1108.00
2018-11-21T07:39:03.664Z,1144.00
2018-11-21T07:40:03.631Z,1068.00
2018-11-21T07:41:03.629Z,956.00
2018-11-21T07:42:03.658Z,900.00
2018-11-21T07:43:03.630Z,832.00
2018-11-21T07:44:03.678Z,800.00
2018-11-21T07:45:03.637Z,768.00
2018-11-21T07:46:03.680Z,808.00
2018-11-21T07:47:03.650Z,792.00
2018-11-21T07:48:03.656Z,852.00
2018-11-21T07:49:03.662Z,940.00
2018-11-21T07:50:03.681Z,1040.00
2018-11-21T07:51:03.653Z,1044.00
2018-11-21T07:52:03.683Z,1040.00
2018-11-21T07:53:03.726Z,1136.00
2018-11-21T07:54:03.675Z,1044.00
2018-11-21T07:55:03.704Z,948.00
2018-11-21T07:56:03.675Z,884.00
2018-11-21T07:57:03.679Z,1028.00
2018-11-21T07:58:03.674Z,1160.00
2018-11-21T07:59:03.682Z,1048.00
2018-11-21T08:00:03.718Z,1128.00
2018-11-21T08:01:03.693Z,1292.00
2018-11-21T08:02:03.686Z,1360.00
2018-11-21T08:03:03.691Z,1336.00
2018-11-21T08:04:03.696Z,1392.00
2018-11-21T08:05:03.723Z,1456.00
2018-11-21T08:06:03.755Z,1440.00
2018-11-21T08:07:03.756Z,1448.00
2018-11-21T08:08:03.710Z,1548.00
2018-11-21T08:09:03.737Z,1648.00
2018-11-21T08:10:03.711Z,1724.00
2018-11-21T08:11:03.732Z,1736.00
2018-11-21T08:12:03.739Z,1808.00
2018-11-21T08:13:03.734Z,1944.00
2018-11-21T08:14:03.802Z,2224.00
2018-11-21T08:15:03.726Z,2224.00
2018-11-21T08:16:03.879Z,2352.00
2018-11-21T08:17:03.736Z,2336.00
2018-11-21T08:18:03.734Z,2224.00
2018-11-21T08:19:03.754Z,2024.00
2018-11-21T08:20:03.738Z,1812.00
2018-11-21T08:21:03.764Z,1684.00
2018-11-21T08:22:03.777Z,1628.00
2018-11-21T08:23:03.752Z,1544.00
2018-11-21T08:24:03.772Z,1632.00
2018-11-21T08:25:03.778Z,1676.00
2018-11-21T08:26:03.794Z,1752.00
2018-11-21T08:27:03.768Z,1852.00
2018-11-21T08:28:03.804Z,1816.00
2018-11-21T08:29:03.785Z,1904.00
2018-11-21T08:30:03.810Z,2088.00
2018-11-21T08:31:03.770Z,2572.00
2018-11-21T08:32:03.834Z,2980.00
2018-11-21T08:33:03.776Z,3104.00
2018-11-21T08:34:03.784Z,3456.00
2018-11-21T08:35:03.829Z,3872.00
2018-11-21T08:36:03.783Z,4140.00
2018-11-21T08:37:03.853Z,4016.00
2018-11-21T08:38:03.793Z,3996.00
2018-11-21T08:39:03.796Z,3588.00
2018-11-21T08:40:03.826Z,2952.00
2018-11-21T08:41:03.807Z,2760.00
2018-11-21T08:42:03.834Z,2456.00
2018-11-21T08:43:03.842Z,2124.00
2018-11-21T08:44:03.825Z,1900.00
2018-11-21T08:45:03.844Z,1716.00
2018-11-21T08:46:03.876Z,1816.00
2018-11-21T08:47:03.824Z,1848.00
2018-11-21T08:48:03.823Z,1848.00
2018-11-21T08:49:03.837Z,2024.00
2018-11-21T08:50:03.826Z,2148.00
2018-11-21T08:51:03.829Z,2164.00
2018-11-21T08:52:03.855Z,2112.00
2018-11-21T08:53:03.842Z,2172.00
2018-11-21T08:54:03.840Z,2072.00
2018-11-21T08:55:08.815Z,1940.00
2018-11-21T08:56:03.883Z,1860.00
2018-11-21T08:57:03.866Z,1956.00
2018-11-21T08:58:03.861Z,2004.00
2018-11-21T08:59:03.854Z,2228.00
2018-11-21T09:00:03.864Z,2564.00
2018-11-21T09:01:03.863Z,2624.00
2018-11-21T09:02:03.894Z,2504.00
2018-11-21T09:03:03.912Z,2736.00
2018-11-21T09:04:03.869Z,3044.00
2018-11-21T09:05:03.876Z,3060.00
2018-11-21T09:06:04.522Z,3092.00
2018-11-21T09:07:03.898Z,3024.00
2018-11-21T09:08:03.895Z,2968.00
2018-11-21T09:09:03.889Z,2724.00
2018-11-21T09:10:03.923Z,2696.00
2018-11-21T09:11:03.911Z,2824.00
2018-11-21T09:12:08.499Z,3020.00
2018-11-21T09:13:03.912Z,3084.00
2018-11-21T09:14:03.894Z,3004.00
2018-11-21T09:15:03.902Z,2964.00
2018-11-21T09:16:03.953Z,3140.00
2018-11-21T09:17:03.951Z,3020.00
2018-11-21T09:18:03.916Z,2940.00
2018-11-21T09:19:03.944Z,3104.00
2018-11-21T09:20:03.938Z,3072.00
2018-11-21T09:21:03.923Z,2976.00
2018-11-21T09:22:03.930Z,3032.00
2018-11-21T09:23:03.934Z,3144.00
2018-11-21T09:24:03.948Z,3228.00
2018-11-21T09:25:04.010Z,3156.00
2018-11-21T09:26:03.939Z,3128.00
2018-11-21T09:27:03.940Z,3180.00
2018-11-21T09:28:03.962Z,3036.00
2018-11-21T09:29:03.969Z,3004.00
2018-11-21T09:30:03.971Z,2904.00
2018-11-21T09:31:03.979Z,2732.00
2018-11-21T09:32:03.958Z,2872.00
2018-11-21T09:33:03.951Z,2724.00
2018-11-21T09:34:04.003Z,2464.00
2018-11-21T09:35:03.962Z,2392.00
2018-11-21T09:36:04.010Z,2404.00
2018-11-21T09:37:03.972Z,2404.00
2018-11-21T09:38:04.024Z,2312.00
2018-11-21T09:39:03.978Z,2212.00
2018-11-21T09:40:03.983Z,2020.00
2018-11-21T09:41:04.570Z,2056.00
2018-11-21T09:42:04.005Z,2036.00
2018-11-21T09:43:03.982Z,2176.00
2018-11-21T09:44:03.993Z,2164.00
2018-11-21T09:45:04.036Z,1984.00
2018-11-21T09:46:04.026Z,2124.00
2018-11-21T09:47:03.996Z,1972.00
2018-11-21T09:48:04.004Z,1900.00
2018-11-21T09:49:04.009Z,1908.00
2018-11-21T09:50:04.004Z,1876.00
2018-11-21T09:51:04.031Z,1888.00
2018-11-21T09:52:04.043Z,1916.00
2018-11-21T09:53:04.050Z,1832.00
2018-11-21T09:54:04.030Z,1892.00
2018-11-21T09:55:04.027Z,1776.00
2018-11-21T09:56:04.076Z,1732.00
2018-11-21T09:57:04.024Z,1756.00
2018-11-21T09:58:04.068Z,1908.00
2018-11-21T09:59:04.045Z,1776.00
2018-11-21T10:00:04.038Z,1844.00
2018-11-21T10:01:04.212Z,1688.00
2018-11-21T10:02:04.039Z,1832.00
2018-11-21T10:03:04.040Z,1840.00
2018-11-21T10:04:04.079Z,1900.00
2018-11-21T10:05:04.054Z,1820.00
2018-11-21T10:06:04.060Z,1860.00
2018-11-21T10:07:04.088Z,1808.00
2018-11-21T10:08:04.058Z,1780.00
2018-11-21T10:09:04.060Z,1604.00
2018-11-21T10:10:04.134Z,1636.00
2018-11-21T10:11:04.064Z,1752.00
2018-11-21T10:12:04.149Z,1732.00
2018-11-21T10:13:04.111Z,1844.00
2018-11-21T10:14:04.079Z,1764.00
2018-11-21T10:15:04.091Z,1924.00
2018-11-21T10:16:04.096Z,1984.00
2018-11-21T10:17:04.089Z,2004.00
2018-11-21T10:18:04.113Z,2188.00
2018-11-21T10:19:04.118Z,2280.00
2018-11-21T10:20:04.105Z,2268.00
2018-11-21T10:21:04.091Z,2496.00
2018-11-21T10:22:04.116Z,2548.00
2018-11-21T10:23:04.098Z,2548.00
2018-11-21T10:24:04.152Z,2456.00
2018-11-21T10:25:04.101Z,2716.00
2018-11-21T10:26:04.126Z,2712.00
2018-11-21T10:27:04.114Z,2532.00
2018-11-21T10:28:04.116Z,2616.00
2018-11-21T10:29:04.125Z,2644.00
2018-11-21T10:30:04.168Z,2472.00
2018-11-21T10:31:04.216Z,2536.00
2018-11-21T10:32:04.151Z,2720.00
2018-11-21T10:33:04.128Z,2632.00
2018-11-21T10:34:04.172Z,2512.00
2018-11-21T10:35:04.158Z,2400.00
2018-11-21T10:36:04.134Z,2152.00
2018-11-21T10:37:04.176Z,2092.00
2018-11-21T10:38:04.145Z,2176.00
2018-11-21T10:39:04.148Z,2060.00
2018-11-21T10:40:04.203Z,2220.00
2018-11-21T10:41:04.210Z,2284.00
2018-11-21T10:42:04.150Z,2180.00
2018-11-21T10:43:04.164Z,2080.00
2018-11-21T10:44:04.164Z,1960.00
2018-11-21T10:45:04.168Z,1848.00
2018-11-21T10:46:04.165Z,1632.00
2018-11-21T10:47:04.199Z,1640.00
2018-11-21T10:48:04.225Z,1692.00
2018-11-21T10:49:04.176Z,1784.00
2018-11-21T10:50:04.219Z,1664.00
2018-11-21T10:51:04.190Z,1684.00
2018-11-21T10:52:04.249Z,1760.00
2018-11-21T10:53:04.193Z,1696.00
2018-11-21T10:54:04.218Z,1620.00
2018-11-21T10:55:04.687Z,1536.00
2018-11-21T10:56:04.191Z,1776.00
2018-11-21T10:57:04.194Z,1864.00
2018-11-21T10:58:04.228Z,1876.00
2018-11-21T10:59:04.202Z,1876.00
2018-11-21T11:00:04.223Z,1956.00
2018-11-21T11:01:04.226Z,1844.00
2018-11-21T11:02:04.209Z,1956.00
2018-11-21T11:03:04.215Z,1936.00
2018-11-21T11:04:04.237Z,1760.00
2018-11-21T11:05:04.248Z,1840.00
2018-11-21T11:06:04.270Z,1804.00
2018-11-21T11:07:04.226Z,1736.00
2018-11-21T11:08:04.226Z,1784.00
2018-11-21T11:09:04.258Z,1772.00
2018-11-21T11:10:04.312Z,1728.00
2018-11-21T11:11:04.243Z,1856.00
2018-11-21T11:12:04.265Z,1788.00
2018-11-21T11:13:04.277Z,1756.00
2018-11-21T11:14:04.253Z,1736.00
2018-11-21T11:15:04.251Z,1792.00
2018-11-21T11:16:04.288Z,1764.00
2018-11-21T11:17:04.702Z,1656.00
2018-11-21T11:18:04.280Z,1528.00
2018-11-21T11:19:04.264Z,1476.00
2018-11-21T11:20:08.597Z,1440.00
2018-11-21T11:21:04.267Z,1388.00
2018-11-21T11:22:04.455Z,1412.00
2018-11-21T11:23:04.345Z,1376.00
2018-11-21T11:24:04.274Z,1456.00
2018-11-21T11:25:04.279Z,1560.00
2018-11-21T11:26:04.300Z,1620.00
2018-11-21T11:27:04.310Z,1732.00
2018-11-21T11:28:04.289Z,2112.00
2018-11-21T11:29:04.310Z,2244.00
2018-11-21T11:30:04.326Z,2560.00
2018-11-21T11:31:04.296Z,2660.00
2018-11-21T11:32:04.292Z,2744.00
2018-11-21T11:33:04.302Z,2872.00
2018-11-21T11:34:04.353Z,2692.00
2018-11-21T11:35:04.321Z,2652.00
2018-11-21T11:36:04.312Z,2564.00
2018-11-21T11:37:04.325Z,2400.00
2018-11-21T11:38:04.321Z,2368.00
2018-11-21T11:39:04.337Z,2508.00
2018-11-21T11:40:04.345Z,2712.00
2018-11-21T11:41:04.415Z,2792.00
2018-11-21T11:42:04.328Z,2788.00
2018-11-21T11:43:04.350Z,2428.00
2018-11-21T11:44:04.349Z,2456.00
2018-11-21T11:45:04.364Z,2576.00
2018-11-21T11:46:04.348Z,2576.00
2018-11-21T11:47:04.385Z,2420.00
2018-11-21T11:48:04.362Z,2400.00
2018-11-21T11:49:04.352Z,2268.00
2018-11-21T11:50:04.353Z,2180.00
2018-11-21T11:51:04.469Z,2148.00
2018-11-21T11:52:04.379Z,2068.00
2018-11-21T11:53:04.366Z,2160.00
2018-11-21T11:54:04.386Z,2160.00
2018-11-21T11:55:04.386Z,2300.00
2018-11-21T11:56:04.366Z,2308.00
2018-11-21T11:57:04.492Z,2376.00
2018-11-21T11:58:04.386Z,2324.00
2018-11-21T11:59:04.388Z,2432.00
2018-11-21T12:00:04.388Z,2616.00
2018-11-21T12:01:04.385Z,2672.00
2018-11-21T12:02:04.433Z,2688.00
2018-11-21T12:03:04.416Z,2756.00
2018-11-21T12:04:04.446Z,2768.00
2018-11-21T12:05:04.410Z,2348.00
2018-11-21T12:06:04.400Z,2384.00
2018-11-21T12:07:04.405Z,2412.00
2018-11-21T12:08:04.449Z,2472.00
2018-11-21T12:09:04.428Z,2584.00
2018-11-21T12:10:04.441Z,2420.00
2018-11-21T12:11:04.442Z,2400.00
2018-11-21T12:12:04.994Z,2320.00
2018-11-21T12:13:04.421Z,2456.00
2018-11-21T12:14:04.442Z,2440.00
2018-11-21T12:15:04.437Z,2380.00
2018-11-21T12:16:04.470Z,2268.00
2018-11-21T12:17:04.446Z,2316.00
2018-11-21T12:18:04.437Z,2320.00
2018-11-21T12:19:04.453Z,2276.00
2018-11-21T12:20:04.457Z,2160.00
2018-11-21T12:21:04.479Z,2164.00
2018-11-21T12:22:04.512Z,2268.00
2018-11-21T12:23:04.490Z,2336.00
2018-11-21T12:24:04.482Z,2280.00
2018-11-21T12:25:04.474Z,2164.00
2018-11-21T12:26:10.393Z,2160.00
2018-11-21T12:27:04.504Z,2156.00
2018-11-21T12:28:04.520Z,2340.00
2018-11-21T12:29:04.477Z,2376.00
2018-11-21T12:30:04.500Z,2512.00
2018-11-21T12:31:04.472Z,2468.00
2018-11-21T12:32:04.479Z,2456.00
2018-11-21T12:33:04.504Z,2348.00
2018-11-21T12:34:04.490Z,2252.00
2018-11-21T12:35:04.488Z,2144.00
2018-11-21T12:36:04.499Z,2200.00
2018-11-21T12:37:04.497Z,2372.00
2018-11-21T12:38:04.558Z,2276.00
2018-11-21T12:39:04.521Z,2316.00
2018-11-21T12:40:04.528Z,2328.00
2018-11-21T12:41:04.518Z,2252.00
2018-11-21T12:42:04.513Z,2172.00
2018-11-21T12:43:04.546Z,2104.00